createdAt,value
2018-08-07T00:01:49.883Z,35.90
2018-08-07T00:06:53.130Z,35.90
2018-08-07T00:11:56.327Z,36.00
2018-08-07T00:16:59.535Z,36.00
2018-08-07T00:22:02.789Z,36.10
2018-08-07T00:27:05.935Z,36.10
2018-08-07T00:32:09.335Z,36.20
2018-08-07T00:37:12.546Z,36.20
2018-08-07T00:42:16.056Z,36.30
2018-08-07T00:52:22.240Z,36.30
2018-08-07T00:57:25.435Z,36.40
2018-08-07T01:02:28.651Z,36.40
2018-08-07T01:07:31.856Z,36.50
2018-08-07T01:12:35.415Z,36.50
2018-08-07T01:17:38.633Z,37.20
2018-08-07T01:22:42.130Z,36.60
2018-08-07T01:27:45.317Z,36.60
2018-08-07T01:32:48.499Z,36.60
2018-08-07T01:37:51.702Z,36.70
2018-08-07T01:42:54.875Z,36.70
2018-08-07T01:47:58.045Z,36.80
2018-08-07T01:53:01.299Z,36.80
2018-08-07T01:58:04.531Z,36.90
2018-08-07T02:03:07.775Z,37.20
2018-08-07T02:08:11.064Z,36.90
2018-08-07T02:13:14.286Z,37.00
2018-08-07T02:18:17.527Z,37.00
2018-08-07T02:23:20.759Z,37.10
2018-08-07T02:28:23.993Z,37.10
2018-08-07T02:33:27.207Z,37.10
2018-08-07T02:38:30.452Z,37.10
2018-08-07T02:43:33.670Z,37.20
2018-08-07T02:48:36.915Z,37.20
2018-08-07T02:53:40.104Z,37.30
2018-08-07T02:58:43.263Z,37.30
2018-08-07T03:03:46.432Z,37.40
2018-08-07T03:13:52.607Z,37.30
2018-08-07T03:18:55.779Z,37.30
2018-08-07T03:23:58.954Z,37.50
2018-08-07T03:29:02.131Z,37.40
2018-08-07T03:34:05.307Z,37.50
2018-08-07T03:39:11.051Z,37.50
2018-08-07T03:44:14.272Z,37.50
2018-08-07T03:49:17.511Z,37.60
2018-08-07T03:54:20.767Z,37.60
2018-08-07T03:59:23.984Z,37.60
2018-08-07T04:04:27.193Z,37.80
2018-08-07T04:09:30.443Z,37.80
2018-08-07T04:14:33.703Z,37.90
2018-08-07T04:19:36.937Z,37.90
2018-08-07T04:24:40.152Z,38.00
2018-08-07T04:29:43.376Z,38.00
2018-08-07T04:34:46.669Z,38.10
2018-08-07T04:39:49.903Z,38.10
2018-08-07T04:44:53.128Z,38.20
2018-08-07T04:49:56.371Z,38.20
2018-08-07T04:54:59.554Z,38.20
2018-08-07T05:00:02.818Z,38.30
2018-08-07T05:05:06.940Z,38.30
2018-08-07T05:15:15.618Z,39.20
2018-08-07T05:20:18.811Z,38.50
2018-08-07T05:25:21.963Z,38.60
2018-08-07T05:30:25.128Z,38.70
2018-08-07T05:35:28.293Z,38.70
2018-08-07T05:40:31.476Z,38.80
2018-08-07T05:45:34.631Z,38.80
2018-08-07T05:50:38.169Z,38.90
2018-08-07T05:55:41.332Z,38.90
2018-08-07T06:00:44.566Z,39.00
2018-08-07T06:05:47.781Z,39.10
2018-08-07T06:10:51.189Z,39.20
2018-08-07T06:15:54.408Z,39.20
2018-08-07T06:20:58.591Z,39.40
2018-08-07T06:26:01.849Z,39.40
2018-08-07T06:31:05.088Z,39.20
2018-08-07T06:36:08.347Z,39.20
2018-08-07T06:41:11.592Z,39.10
2018-08-07T06:46:14.846Z,39.10
2018-08-07T06:51:18.100Z,39.10
2018-08-07T06:56:21.276Z,39.20
2018-08-07T07:01:24.435Z,39.20
2018-08-07T07:06:27.603Z,39.10
2018-08-07T07:11:30.775Z,39.10
2018-08-07T07:16:33.948Z,39.70
2018-08-07T07:21:37.111Z,39.00
2018-08-07T07:26:40.328Z,38.80
2018-08-07T07:36:46.411Z,38.90
2018-08-07T07:41:49.615Z,39.10
2018-08-07T07:46:52.815Z,39.30
2018-08-07T07:51:55.959Z,39.80
2018-08-07T07:56:59.202Z,40.10
2018-08-07T08:02:02.419Z,39.90
2018-08-07T08:07:05.962Z,39.90
2018-08-07T08:12:09.218Z,40.00
2018-08-07T08:17:12.435Z,40.10
2018-08-07T08:22:15.659Z,40.10
2018-08-07T08:27:18.910Z,40.30
2018-08-07T08:32:22.131Z,40.30
2018-08-07T08:37:25.359Z,40.20
2018-08-07T08:42:28.587Z,40.20
2018-08-07T08:47:31.811Z,40.00
2018-08-07T08:52:35.092Z,39.90
2018-08-07T08:57:38.779Z,39.40
2018-08-07T09:02:43.311Z,38.60
2018-08-07T09:07:46.556Z,39.20
2018-08-07T09:12:50.460Z,39.70
2018-08-07T09:17:53.709Z,39.10
2018-08-07T09:22:57.379Z,38.90
2018-08-07T09:28:00.598Z,38.80
2018-08-07T09:33:04.486Z,38.70
2018-08-07T09:38:07.615Z,38.70
2018-08-07T09:43:10.847Z,37.90
2018-08-07T09:48:14.247Z,38.30
2018-08-07T09:53:17.487Z,37.00
2018-08-07T09:58:20.711Z,36.90
2018-08-07T10:03:23.942Z,36.90
2018-08-07T10:08:27.239Z,36.80
2018-08-07T10:13:30.483Z,37.00
2018-08-07T10:18:33.699Z,37.90
2018-08-07T10:23:36.966Z,37.50
2018-08-07T10:28:40.179Z,35.80
2018-08-07T10:33:43.400Z,35.20
2018-08-07T10:38:46.623Z,35.60
2018-08-07T10:43:49.993Z,37.10
2018-08-07T10:48:53.124Z,36.90
2018-08-07T10:53:56.307Z,35.90
2018-08-07T10:58:59.460Z,36.20
2018-08-07T11:04:02.695Z,37.10
2018-08-07T11:09:08.663Z,36.50
2018-08-07T11:14:11.839Z,36.50
2018-08-07T11:19:15.023Z,37.00
2018-08-07T11:24:18.249Z,35.80
2018-08-07T11:29:21.531Z,36.80
2018-08-07T11:34:24.699Z,36.30
2018-08-07T11:39:27.871Z,35.60
2018-08-07T11:44:31.055Z,35.00
2018-08-07T11:49:34.227Z,35.00
2018-08-07T11:54:37.467Z,34.10
2018-08-07T11:59:40.679Z,34.70
2018-08-07T12:09:47.146Z,34.60
2018-08-07T12:14:50.642Z,34.20
2018-08-07T12:19:53.888Z,34.50
2018-08-07T12:24:57.108Z,34.30
2018-08-07T12:30:00.860Z,34.20
2018-08-07T12:35:04.437Z,33.90
2018-08-07T12:40:16.291Z,32.40
2018-08-07T12:50:22.501Z,32.30
2018-08-07T12:55:25.759Z,30.70
2018-08-07T13:00:31.379Z,31.70
2018-08-07T13:05:34.611Z,31.20
2018-08-07T13:10:37.904Z,30.90
2018-08-07T13:15:41.171Z,30.60
2018-08-07T13:20:44.423Z,30.80
2018-08-07T13:25:47.736Z,29.70
2018-08-07T13:30:50.936Z,30.20
2018-08-07T13:35:54.800Z,29.80
2018-08-07T13:40:58.081Z,30.00
2018-08-07T13:46:01.343Z,29.80
2018-08-07T13:51:05.031Z,29.40
2018-08-07T13:56:09.353Z,28.80
2018-08-07T14:01:12.539Z,29.30
2018-08-07T14:06:15.731Z,30.00
2018-08-07T14:11:19.109Z,30.50
2018-08-07T14:16:22.301Z,30.90
2018-08-07T14:21:25.487Z,30.10
2018-08-07T14:26:28.671Z,30.70
2018-08-07T14:31:36.411Z,30.80
2018-08-07T14:36:39.756Z,30.80
2018-08-07T14:41:42.920Z,31.10
2018-08-07T14:46:46.108Z,31.20
2018-08-07T14:51:49.344Z,31.20
2018-08-07T14:56:52.795Z,28.60
2018-08-07T15:01:55.981Z,28.50
2018-08-07T15:06:59.173Z,28.90
2018-08-07T15:12:02.360Z,29.30
2018-08-07T15:17:06.102Z,29.50
2018-08-07T15:22:09.299Z,30.00
2018-08-07T15:27:12.512Z,30.10
2018-08-07T15:32:15.704Z,30.10
2018-08-07T15:37:18.882Z,30.10
2018-08-07T15:47:25.095Z,29.90
2018-08-07T15:52:28.233Z,29.90
2018-08-07T15:57:31.424Z,29.80
2018-08-07T16:02:34.624Z,29.50
2018-08-07T16:07:37.843Z,30.00
2018-08-07T16:12:41.024Z,30.00
2018-08-07T16:17:45.291Z,29.90
2018-08-07T16:22:48.472Z,29.40
2018-08-07T16:27:51.855Z,31.10
2018-08-07T16:32:54.958Z,31.00
2018-08-07T16:37:58.156Z,29.90
2018-08-07T16:43:01.352Z,29.60
2018-08-07T16:48:04.867Z,31.40
2018-08-07T16:53:08.081Z,29.30
2018-08-07T16:58:11.275Z,32.30
2018-08-07T17:03:14.456Z,32.40
2018-08-07T17:08:17.660Z,31.90
2018-08-07T17:13:20.839Z,32.00
2018-08-07T17:18:24.036Z,32.70
2018-08-07T17:23:27.228Z,31.10
2018-08-07T17:28:30.431Z,31.70
2018-08-07T17:33:33.636Z,31.50
2018-08-07T17:38:36.826Z,28.70
2018-08-07T17:43:40.015Z,29.50
2018-08-07T17:48:43.193Z,29.60
2018-08-07T17:53:46.475Z,29.30
2018-08-07T17:58:49.734Z,29.90
2018-08-07T18:03:53.271Z,28.70
2018-08-07T18:08:56.810Z,31.80
2018-08-07T18:14:00.366Z,32.40
2018-08-07T18:19:03.669Z,33.40
2018-08-07T18:24:06.916Z,30.70
2018-08-07T18:29:10.159Z,30.10
2018-08-07T18:34:13.407Z,30.90
2018-08-07T18:39:16.705Z,31.90
2018-08-07T18:44:19.948Z,31.50
2018-08-07T18:49:23.324Z,31.80
2018-08-07T18:59:29.706Z,33.00
2018-08-07T19:04:32.997Z,33.20
2018-08-07T19:09:36.395Z,33.20
2018-08-07T19:14:39.772Z,33.00
2018-08-07T19:19:42.999Z,33.00
2018-08-07T19:24:46.248Z,32.80
2018-08-07T19:29:49.532Z,32.70
2018-08-07T19:34:52.799Z,32.90
2018-08-07T19:39:56.100Z,32.30
2018-08-07T19:45:00.012Z,32.80
2018-08-07T19:50:03.339Z,33.20
2018-08-07T19:55:08.735Z,32.90
2018-08-07T20:00:14.511Z,32.90
2018-08-07T20:05:17.738Z,32.60
2018-08-07T20:10:21.439Z,32.50
2018-08-07T20:15:27.095Z,33.40
2018-08-07T20:20:30.351Z,33.60
2018-08-07T20:25:33.677Z,34.00
2018-08-07T20:30:36.954Z,34.50
2018-08-07T20:35:40.196Z,34.80
2018-08-07T20:40:43.467Z,35.30
2018-08-07T20:45:46.729Z,35.60
2018-08-07T20:50:50.000Z,35.60
2018-08-07T20:55:53.303Z,36.00
2018-08-07T21:00:56.576Z,36.30
2018-08-07T21:05:59.818Z,36.60
2018-08-07T21:16:06.060Z,36.90
2018-08-07T21:21:09.284Z,36.90
2018-08-07T21:26:12.563Z,36.90
2018-08-07T21:31:15.796Z,36.90
2018-08-07T21:36:19.041Z,37.10
2018-08-07T21:41:22.349Z,37.30
2018-08-07T21:46:25.539Z,37.40
2018-08-07T21:51:28.775Z,37.50
2018-08-07T21:56:32.055Z,37.50
2018-08-07T22:01:35.336Z,37.80
2018-08-07T22:06:38.666Z,37.80
2018-08-07T22:11:41.907Z,37.80
2018-08-07T22:16:45.178Z,37.90
2018-08-07T22:21:48.436Z,38.10
2018-08-07T22:26:51.688Z,38.10
2018-08-07T22:31:54.928Z,38.30
2018-08-07T22:36:58.159Z,38.30
2018-08-07T22:42:01.424Z,38.20
2018-08-07T22:47:04.773Z,38.20
2018-08-07T22:52:08.032Z,38.20
2018-08-07T22:57:11.224Z,38.40
2018-08-07T23:02:14.407Z,38.40
2018-08-07T23:07:17.588Z,38.60
2018-08-07T23:12:20.836Z,38.70
2018-08-07T23:17:24.024Z,38.70
2018-08-07T23:22:27.287Z,38.70
2018-08-07T23:27:30.446Z,38.80
2018-08-07T23:32:33.639Z,38.90
2018-08-07T23:37:36.817Z,38.90
2018-08-07T23:42:40.555Z,38.90
2018-08-07T23:47:43.796Z,39.10
2018-08-07T23:52:46.991Z,39.20
2018-08-07T23:57:50.171Z,39.30
